sensor_id;sensor_type;location;lat;lon;timestamp;pressure;altitude;pressure_sealevel;temperature;humidity
33697;BME280;20031;43.416;23.232;2024-01-11T00:01:16;101443.34;;;-5.99;79.82
33697;BME280;20031;43.416;23.232;2024-01-11T00:03:41;101427.34;;;-6.02;79.78
33697;BME280;20031;43.416;23.232;2024-01-11T00:06:07;101426.56;;;-6.06;79.72
33697;BME280;20031;43.416;23.232;2024-01-11T00:08:32;101425.72;;;-6.05;79.94
33697;BME280;20031;43.416;23.232;2024-01-11T00:10:57;101424.84;;;-6.05;79.85
33697;BME280;20031;43.416;23.232;2024-01-11T00:13:23;101430.81;;;-6.06;79.86
33697;BME280;20031;43.416;23.232;2024-01-11T00:15:49;101429.13;;;-6.07;79.76
33697;BME280;20031;43.416;23.232;2024-01-11T00:18:14;101427.38;;;-6.05;79.57
33697;BME280;20031;43.416;23.232;2024-01-11T00:20:39;101427.38;;;-6.05;79.77
33697;BME280;20031;43.416;23.232;2024-01-11T00:23:05;101425.72;;;-6.05;79.24
33697;BME280;20031;43.416;23.232;2024-01-11T00:25:30;101428.28;;;-6.07;79.24
33697;BME280;20031;43.416;23.232;2024-01-11T00:27:56;101421.63;;;-6.13;79.50
33697;BME280;20031;43.416;23.232;2024-01-11T00:30:21;101421.63;;;-6.13;78.98
33697;BME280;20031;43.416;23.232;2024-01-11T00:32:48;101429.22;;;-6.13;79.09
33697;BME280;20031;43.416;23.232;2024-01-11T00:35:14;101419.84;;;-6.09;79.55
33697;BME280;20031;43.416;23.232;2024-01-11T00:37:39;101406.38;;;-6.11;79.14
33697;BME280;20031;43.416;23.232;2024-01-11T00:40:05;101398.84;;;-6.14;79.20
33697;BME280;20031;43.416;23.232;2024-01-11T00:42:31;101407.16;;;-6.08;79.21
33697;BME280;20031;43.416;23.232;2024-01-11T00:44:56;101405.50;;;-6.10;79.21
33697;BME280;20031;43.416;23.232;2024-01-11T00:47:22;101411.44;;;-6.10;78.96
33697;BME280;20031;43.416;23.232;2024-01-11T00:49:47;101405.53;;;-6.12;78.78
33697;BME280;20031;43.416;23.232;2024-01-11T00:52:12;101405.53;;;-6.12;79.12
33697;BME280;20031;43.416;23.232;2024-01-11T00:54:39;101403.13;;;-6.19;78.60
33697;BME280;20031;43.416;23.232;2024-01-11T00:57:04;101399.88;;;-6.27;78.27
33697;BME280;20031;43.416;23.232;2024-01-11T00:59:30;101394.88;;;-6.33;78.20
33697;BME280;20031;43.416;23.232;2024-01-11T01:01:55;101396.66;;;-6.38;78.22
33697;BME280;20031;43.416;23.232;2024-01-11T01:04:21;101396.66;;;-6.40;78.59
33697;BME280;20031;43.416;23.232;2024-01-11T01:06:46;101392.41;;;-6.38;78.52
33697;BME280;20031;43.416;23.232;2024-01-11T01:09:11;101390.72;;;-6.36;78.73
33697;BME280;20031;43.416;23.232;2024-01-11T01:11:38;101399.13;;;-6.34;78.50
33697;BME280;20031;43.416;23.232;2024-01-11T01:14:04;101390.69;;;-6.34;78.75
33697;BME280;20031;43.416;23.232;2024-01-11T01:16:30;101386.50;;;-6.38;78.26
33697;BME280;20031;43.416;23.232;2024-01-11T01:18:55;101383.97;;;-6.37;78.34
33697;BME280;20031;43.416;23.232;2024-01-11T01:21:21;101383.13;;;-6.37;78.69
33697;BME280;20031;43.416;23.232;2024-01-11T01:23:46;101368.84;;;-6.41;78.60
33697;BME280;20031;43.416;23.232;2024-01-11T01:26:11;101376.34;;;-6.37;78.34
33697;BME280;20031;43.416;23.232;2024-01-11T01:28:37;101364.50;;;-6.35;78.60
33697;BME280;20031;43.416;23.232;2024-01-11T01:31:02;101380.59;;;-6.37;78.40
33697;BME280;20031;43.416;23.232;2024-01-11T01:33:28;101362.94;;;-6.43;78.44
33697;BME280;20031;43.416;23.232;2024-01-11T01:35:53;101357.84;;;-6.42;78.32
33697;BME280;20031;43.416;23.232;2024-01-11T01:38:19;101352.75;;;-6.40;78.49
33697;BME280;20031;43.416;23.232;2024-01-11T01:40:44;101357.03;;;-6.44;78.54
33697;BME280;20031;43.416;23.232;2024-01-11T01:43:09;101351.19;;;-6.46;78.48
33697;BME280;20031;43.416;23.232;2024-01-11T01:45:35;101345.25;;;-6.46;78.38
33697;BME280;20031;43.416;23.232;2024-01-11T01:48:01;101340.22;;;-6.48;78.24
33697;BME280;20031;43.416;23.232;2024-01-11T01:50:27;101340.38;;;-6.58;77.91
33697;BME280;20031;43.416;23.232;2024-01-11T01:52:54;101338.75;;;-6.63;78.08
33697;BME280;20031;43.416;23.232;2024-01-11T01:55:22;101331.16;;;-6.63;78.18
33697;BME280;20031;43.416;23.232;2024-01-11T01:57:48;101330.34;;;-6.64;78.02
33697;BME280;20031;43.416;23.232;2024-01-11T02:00:15;101332.06;;;-6.67;78.54
33697;BME280;20031;43.416;23.232;2024-01-11T02:02:43;101334.63;;;-6.69;78.16
33697;BME280;20031;43.416;23.232;2024-01-11T02:05:10;101330.44;;;-6.71;78.28
33697;BME280;20031;43.416;23.232;2024-01-11T02:07:36;101316.81;;;-6.64;78.58
33697;BME280;20031;43.416;23.232;2024-01-11T02:10:02;101316.75;;;-6.58;79.17
33697;BME280;20031;43.416;23.232;2024-01-11T02:12:29;101307.44;;;-6.57;78.75
33697;BME280;20031;43.416;23.232;2024-01-11T02:14:54;101315.94;;;-6.62;78.36
33697;BME280;20031;43.416;23.232;2024-01-11T02:17:20;101317.75;;;-6.71;78.32
33697;BME280;20031;43.416;23.232;2024-01-11T02:19:46;101312.81;;;-6.79;78.04
33697;BME280;20031;43.416;23.232;2024-01-11T02:22:24;101317.03;;;-6.78;78.23
33697;BME280;20031;43.416;23.232;2024-01-11T02:24:53;101306.88;;;-6.76;78.49
33697;BME280;20031;43.416;23.232;2024-01-11T02:27:19;101311.16;;;-6.81;78.54
33697;BME280;20031;43.416;23.232;2024-01-11T02:29:44;101306.28;;;-6.93;78.04
33697;BME280;20031;43.416;23.232;2024-01-11T02:32:10;101309.72;;;-6.99;78.56
33697;BME280;20031;43.416;23.232;2024-01-11T02:34:36;101307.25;;;-7.03;77.97
33697;BME280;20031;43.416;23.232;2024-01-11T02:37:02;101308.97;;;-7.05;78.80
33697;BME280;20031;43.416;23.232;2024-01-11T02:39:27;101309.03;;;-7.08;78.35
33697;BME280;20031;43.416;23.232;2024-01-11T02:41:56;101313.19;;;-7.07;78.50
33697;BME280;20031;43.416;23.232;2024-01-11T02:44:21;101304.81;;;-7.09;78.63
33697;BME280;20031;43.416;23.232;2024-01-11T02:46:46;101309.75;;;-7.02;78.53
33697;BME280;20031;43.416;23.232;2024-01-11T02:49:12;101310.59;;;-7.01;78.34
33697;BME280;20031;43.416;23.232;2024-01-11T02:51:37;101304.69;;;-7.00;78.64
33697;BME280;20031;43.416;23.232;2024-01-11T02:54:03;101296.19;;;-6.96;79.12
33697;BME280;20031;43.416;23.232;2024-01-11T02:56:28;101291.06;;;-6.92;79.29
33697;BME280;20031;43.416;23.232;2024-01-11T02:58:54;101285.91;;;-6.84;78.75
33697;BME280;20031;43.416;23.232;2024-01-11T03:01:19;101288.41;;;-6.83;78.70
33697;BME280;20031;43.416;23.232;2024-01-11T03:03:45;101285.03;;;-6.83;78.95
33697;BME280;20031;43.416;23.232;2024-01-11T03:06:11;101290.13;;;-6.85;78.75
33697;BME280;20031;43.416;23.232;2024-01-11T03:08:36;101292.72;;;-6.88;79.00
33697;BME280;20031;43.416;23.232;2024-01-11T03:11:02;101284.28;;;-6.87;78.77
33697;BME280;20031;43.416;23.232;2024-01-11T03:13:27;101280.16;;;-6.94;78.93
33697;BME280;20031;43.416;23.232;2024-01-11T03:15:53;101282.66;;;-6.92;79.32
33697;BME280;20031;43.416;23.232;2024-01-11T03:18:18;101280.06;;;-6.88;79.28
33697;BME280;20031;43.416;23.232;2024-01-11T03:20:44;101279.03;;;-6.76;79.69
33697;BME280;20031;43.416;23.232;2024-01-11T03:23:09;101273.03;;;-6.69;79.29
33697;BME280;20031;43.416;23.232;2024-01-11T03:25:34;101264.50;;;-6.62;79.33
33697;BME280;20031;43.416;23.232;2024-01-11T03:28:00;101260.47;;;-6.75;78.74
33697;BME280;20031;43.416;23.232;2024-01-11T03:30:26;101253.81;;;-6.81;79.29
33697;BME280;20031;43.416;23.232;2024-01-11T03:32:51;101255.53;;;-6.84;79.43
33697;BME280;20031;43.416;23.232;2024-01-11T03:35:18;101260.53;;;-6.78;79.60
33697;BME280;20031;43.416;23.232;2024-01-11T03:37:43;101252.88;;;-6.75;79.56
33697;BME280;20031;43.416;23.232;2024-01-11T03:40:09;101247.72;;;-6.69;79.49
33697;BME280;20031;43.416;23.232;2024-01-11T03:42:34;101254.47;;;-6.70;79.43
33697;BME280;20031;43.416;23.232;2024-01-11T03:45:00;101242.72;;;-6.72;78.88
33697;BME280;20031;43.416;23.232;2024-01-11T03:47:25;101238.41;;;-6.69;79.94
33697;BME280;20031;43.416;23.232;2024-01-11T03:49:51;101241.66;;;-6.59;80.10
33697;BME280;20031;43.416;23.232;2024-01-11T03:52:16;101238.22;;;-6.56;79.59
33697;BME280;20031;43.416;23.232;2024-01-11T03:54:41;101232.38;;;-6.60;79.32
33697;BME280;20031;43.416;23.232;2024-01-11T03:57:07;101234.91;;;-6.60;79.66
33697;BME280;20031;43.416;23.232;2024-01-11T03:59:32;101231.59;;;-6.64;79.60
33697;BME280;20031;43.416;23.232;2024-01-11T04:01:59;101225.78;;;-6.70;78.98
33697;BME280;20031;43.416;23.232;2024-01-11T04:04:24;101228.38;;;-6.73;79.44
33697;BME280;20031;43.416;23.232;2024-01-11T04:06:51;101229.25;;;-6.77;78.97
33697;BME280;20031;43.416;23.232;2024-01-11T04:09:17;101220.88;;;-6.79;79.17
33697;BME280;20031;43.416;23.232;2024-01-11T04:11:43;101220.88;;;-6.79;79.19
33697;BME280;20031;43.416;23.232;2024-01-11T04:14:08;101217.50;;;-6.81;79.56
33697;BME280;20031;43.416;23.232;2024-01-11T04:16:33;101213.34;;;-6.82;79.18
33697;BME280;20031;43.416;23.232;2024-01-11T04:18:59;101209.13;;;-6.83;79.73
33697;BME280;20031;43.416;23.232;2024-01-11T04:21:26;101216.63;;;-6.79;79.29
33697;BME280;20031;43.416;23.232;2024-01-11T04:23:55;101207.31;;;-6.75;79.57
33697;BME280;20031;43.416;23.232;2024-01-11T04:26:21;101207.38;;;-6.78;79.52
33697;BME280;20031;43.416;23.232;2024-01-11T04:28:47;101204.84;;;-6.78;79.15
33697;BME280;20031;43.416;23.232;2024-01-11T04:31:14;101201.56;;;-6.86;79.14
33697;BME280;20031;43.416;23.232;2024-01-11T04:33:45;101202.44;;;-6.87;79.26
33697;BME280;20031;43.416;23.232;2024-01-11T04:36:11;101207.59;;;-6.93;79.40
33697;BME280;20031;43.416;23.232;2024-01-11T04:38:37;101193.31;;;-6.97;79.30
33697;BME280;20031;43.416;23.232;2024-01-11T04:41:10;101197.59;;;-7.02;79.27
33697;BME280;20031;43.416;23.232;2024-01-11T04:43:39;101200.94;;;-7.00;79.20
33697;BME280;20031;43.416;23.232;2024-01-11T04:46:21;101198.38;;;-6.97;79.75
33697;BME280;20031;43.416;23.232;2024-01-11T04:48:47;101195.75;;;-6.93;79.53
33697;BME280;20031;43.416;23.232;2024-01-11T04:51:15;101194.09;;;-6.92;79.51
33697;BME280;20031;43.416;23.232;2024-01-11T04:53:42;101195.72;;;-6.88;79.80
33697;BME280;20031;43.416;23.232;2024-01-11T04:56:09;101189.56;;;-6.74;80.08
33697;BME280;20031;43.416;23.232;2024-01-11T04:58:35;101188.41;;;-6.55;80.42
33697;BME280;20031;43.416;23.232;2024-01-11T05:01:04;101191.28;;;-6.28;80.70
33697;BME280;20031;43.416;23.232;2024-01-11T05:03:30;101181.72;;;-6.12;81.04
33697;BME280;20031;43.416;23.232;2024-01-11T05:05:57;101174.72;;;-6.00;81.04
33697;BME280;20031;43.416;23.232;2024-01-11T05:08:22;101178.75;;;-5.90;80.85
33697;BME280;20031;43.416;23.232;2024-01-11T05:10:49;101175.28;;;-5.85;81.30
33697;BME280;20031;43.416;23.232;2024-01-11T05:13:14;101169.22;;;-5.79;81.77
33697;BME280;20031;43.416;23.232;2024-01-11T05:15:40;101162.44;;;-5.77;81.80
33697;BME280;20031;43.416;23.232;2024-01-11T05:18:05;101155.66;;;-5.77;81.84
33697;BME280;20031;43.416;23.232;2024-01-11T05:20:31;101159.03;;;-5.76;82.17
33697;BME280;20031;43.416;23.232;2024-01-11T05:22:56;101153.13;;;-5.77;82.06
33697;BME280;20031;43.416;23.232;2024-01-11T05:25:21;101148.94;;;-5.79;82.15
33697;BME280;20031;43.416;23.232;2024-01-11T05:27:47;101143.91;;;-5.81;82.47
33697;BME280;20031;43.416;23.232;2024-01-11T05:30:14;101143.84;;;-5.76;82.56
33697;BME280;20031;43.416;23.232;2024-01-11T05:32:39;101138.75;;;-5.76;83.01
33697;BME280;20031;43.416;23.232;2024-01-11T05:35:05;101141.19;;;-5.73;83.04
33697;BME280;20031;43.416;23.232;2024-01-11T05:37:30;101140.34;;;-5.74;82.79
33697;BME280;20031;43.416;23.232;2024-01-11T05:39:56;101135.28;;;-5.74;83.29
33697;BME280;20031;43.416;23.232;2024-01-11T05:42:23;101136.88;;;-5.70;83.11
33697;BME280;20031;43.416;23.232;2024-01-11T05:44:48;101132.63;;;-5.69;83.04
33697;BME280;20031;43.416;23.232;2024-01-11T05:47:14;101130.06;;;-5.68;83.30
33697;BME280;20031;43.416;23.232;2024-01-11T05:49:40;101129.28;;;-5.70;82.90
33697;BME280;20031;43.416;23.232;2024-01-11T05:52:05;101126.78;;;-5.71;82.69
33697;BME280;20031;43.416;23.232;2024-01-11T05:54:31;101127.81;;;-5.80;82.28
33697;BME280;20031;43.416;23.232;2024-01-11T05:56:56;101124.78;;;-5.97;81.96
33697;BME280;20031;43.416;23.232;2024-01-11T05:59:23;101119.81;;;-6.01;82.49
33697;BME280;20031;43.416;23.232;2024-01-11T06:01:48;101113.78;;;-5.94;83.20
33697;BME280;20031;43.416;23.232;2024-01-11T06:04:14;101112.91;;;-5.93;82.71
33697;BME280;20031;43.416;23.232;2024-01-11T06:06:40;101123.06;;;-5.93;82.39
33697;BME280;20031;43.416;23.232;2024-01-11T06:09:05;101122.19;;;-5.94;82.48
33697;BME280;20031;43.416;23.232;2024-01-11T06:11:31;101117.34;;;-6.04;81.81
33697;BME280;20031;43.416;23.232;2024-01-11T06:13:56;101116.81;;;-6.19;81.87
33697;BME280;20031;43.416;23.232;2024-01-11T06:16:22;101116.09;;;-6.24;81.48
33697;BME280;20031;43.416;23.232;2024-01-11T06:18:48;101110.19;;;-6.26;81.53
33697;BME280;20031;43.416;23.232;2024-01-11T06:21:13;101103.28;;;-6.18;82.42
33697;BME280;20031;43.416;23.232;2024-01-11T06:23:40;101110.53;;;-6.02;82.05
33697;BME280;20031;43.416;23.232;2024-01-11T06:26:07;101099.28;;;-5.89;82.05
33697;BME280;20031;43.416;23.232;2024-01-11T06:28:32;101091.50;;;-5.80;81.72
33697;BME280;20031;43.416;23.232;2024-01-11T06:30:58;101105.56;;;-5.67;82.13
33697;BME280;20031;43.416;23.232;2024-01-11T06:33:23;101095.34;;;-5.64;81.56
33697;BME280;20031;43.416;23.232;2024-01-11T06:35:48;101098.56;;;-5.57;81.71
33697;BME280;20031;43.416;23.232;2024-01-11T06:38:14;101086.53;;;-5.49;80.97
33697;BME280;20031;43.416;23.232;2024-01-11T06:40:39;101093.06;;;-5.39;81.44
33697;BME280;20031;43.416;23.232;2024-01-11T06:43:05;101094.44;;;-5.26;81.16
33697;BME280;20031;43.416;23.232;2024-01-11T06:45:31;101092.56;;;-5.18;80.86
33697;BME280;20031;43.416;23.232;2024-01-11T06:47:56;101095.69;;;-5.08;80.92
33697;BME280;20031;43.416;23.232;2024-01-11T06:50:22;101093.66;;;-4.95;80.37
33697;BME280;20031;43.416;23.232;2024-01-11T06:52:47;101090.72;;;-4.78;80.81
33697;BME280;20031;43.416;23.232;2024-01-11T06:55:13;101075.97;;;-4.64;80.42
33697;BME280;20031;43.416;23.232;2024-01-11T06:57:38;101090.81;;;-4.50;79.76
33697;BME280;20031;43.416;23.232;2024-01-11T07:00:04;101094.72;;;-4.38;79.71
33697;BME280;20031;43.416;23.232;2024-01-11T07:02:30;101087.59;;;-4.26;79.10
33697;BME280;20031;43.416;23.232;2024-01-11T07:04:56;101085.44;;;-4.09;79.17
33697;BME280;20031;43.416;23.232;2024-01-11T07:07:22;101090.84;;;-3.91;79.11
33697;BME280;20031;43.416;23.232;2024-01-11T07:09:47;101097.00;;;-3.70;78.47
33697;BME280;20031;43.416;23.232;2024-01-11T07:12:12;101081.72;;;-3.43;79.47
33697;BME280;20031;43.416;23.232;2024-01-11T07:14:38;101082.41;;;-3.11;78.89
33697;BME280;20031;43.416;23.232;2024-01-11T07:17:04;101084.22;;;-2.89;78.58
33697;BME280;20031;43.416;23.232;2024-01-11T07:19:29;101093.78;;;-2.71;78.22
33697;BME280;20031;43.416;23.232;2024-01-11T07:21:55;101093.72;;;-2.45;77.79
33697;BME280;20031;43.416;23.232;2024-01-11T07:24:20;101083.47;;;-2.19;76.98
33697;BME280;20031;43.416;23.232;2024-01-11T07:26:46;101085.16;;;-2.20;76.36
33697;BME280;20031;43.416;23.232;2024-01-11T07:29:11;101073.75;;;-2.10;76.13
33697;BME280;20031;43.416;23.232;2024-01-11T07:31:37;101074.09;;;-1.96;75.70
33697;BME280;20031;43.416;23.232;2024-01-11T07:34:02;101073.31;;;-1.75;75.65
33697;BME280;20031;43.416;23.232;2024-01-11T07:36:28;101076.69;;;-1.53;75.29
33697;BME280;20031;43.416;23.232;2024-01-11T07:38:53;101072.94;;;-1.24;75.43
33697;BME280;20031;43.416;23.232;2024-01-11T07:41:21;101066.88;;;-0.80;75.20
33697;BME280;20031;43.416;23.232;2024-01-11T07:43:46;101065.09;;;-0.58;74.40
33697;BME280;20031;43.416;23.232;2024-01-11T07:46:12;101061.56;;;-0.56;73.83
33697;BME280;20031;43.416;23.232;2024-01-11T07:48:38;101059.59;;;-0.50;72.33
33697;BME280;20031;43.416;23.232;2024-01-11T07:51:04;101058.94;;;-0.54;72.32
33697;BME280;20031;43.416;23.232;2024-01-11T07:53:30;101050.53;;;-0.18;73.06
33697;BME280;20031;43.416;23.232;2024-01-11T07:55:57;101051.66;;;0.13;71.81
33697;BME280;20031;43.416;23.232;2024-01-11T07:58:23;101049.53;;;0.39;71.87
33697;BME280;20031;43.416;23.232;2024-01-11T08:00:48;101050.03;;;0.47;70.67
33697;BME280;20031;43.416;23.232;2024-01-11T08:03:14;101040.16;;;0.56;70.68
33697;BME280;20031;43.416;23.232;2024-01-11T08:05:40;101042.34;;;0.82;70.33
33697;BME280;20031;43.416;23.232;2024-01-11T08:08:06;101039.84;;;0.98;69.38
33697;BME280;20031;43.416;23.232;2024-01-11T08:10:32;101034.78;;;1.13;69.36
33697;BME280;20031;43.416;23.232;2024-01-11T08:12:57;101025.22;;;1.33;68.86
33697;BME280;20031;43.416;23.232;2024-01-11T08:15:24;101023.75;;;1.45;68.62
33697;BME280;20031;43.416;23.232;2024-01-11T08:17:50;101022.59;;;1.18;67.26
33697;BME280;20031;43.416;23.232;2024-01-11T08:20:15;101019.06;;;1.36;67.75
33697;BME280;20031;43.416;23.232;2024-01-11T08:22:42;101010.41;;;1.38;67.45
33697;BME280;20031;43.416;23.232;2024-01-11T08:25:11;101009.50;;;1.39;66.74
33697;BME280;20031;43.416;23.232;2024-01-11T08:27:36;101010.81;;;1.31;66.58
33697;BME280;20031;43.416;23.232;2024-01-11T08:30:02;101011.13;;;1.08;66.24
33697;BME280;20031;43.416;23.232;2024-01-11T08:32:30;101020.13;;;1.32;67.72
33697;BME280;20031;43.416;23.232;2024-01-11T08:34:57;101013.09;;;1.52;67.36
33697;BME280;20031;43.416;23.232;2024-01-11T08:37:22;101011.47;;;1.34;66.03
33697;BME280;20031;43.416;23.232;2024-01-11T08:39:48;101009.84;;;1.16;66.62
33697;BME280;20031;43.416;23.232;2024-01-11T08:42:14;101000.88;;;1.08;67.54
33697;BME280;20031;43.416;23.232;2024-01-11T08:44:43;101002.22;;;0.98;67.41
33697;BME280;20031;43.416;23.232;2024-01-11T08:47:09;101007.94;;;1.03;68.35
33697;BME280;20031;43.416;23.232;2024-01-11T08:49:39;100990.59;;;1.57;69.16
33697;BME280;20031;43.416;23.232;2024-01-11T08:52:05;100988.88;;;1.88;67.72
33697;BME280;20031;43.416;23.232;2024-01-11T08:54:31;100979.47;;;2.04;66.91
33697;BME280;20031;43.416;23.232;2024-01-11T08:56:58;100981.84;;;1.76;66.00
33697;BME280;20031;43.416;23.232;2024-01-11T08:59:24;100968.28;;;1.74;66.43
33697;BME280;20031;43.416;23.232;2024-01-11T09:01:51;100966.63;;;2.04;68.06
33697;BME280;20031;43.416;23.232;2024-01-11T09:04:17;100961.94;;;2.56;67.71
33697;BME280;20031;43.416;23.232;2024-01-11T09:06:43;100952.78;;;2.66;66.76
33697;BME280;20031;43.416;23.232;2024-01-11T09:09:08;100948.22;;;2.85;65.29
33697;BME280;20031;43.416;23.232;2024-01-11T09:11:36;100949.97;;;2.55;66.00
33697;BME280;20031;43.416;23.232;2024-01-11T09:14:01;100936.41;;;2.97;66.75
33697;BME280;20031;43.416;23.232;2024-01-11T09:16:28;100931.38;;;3.09;65.98
33697;BME280;20031;43.416;23.232;2024-01-11T09:18:53;100929.53;;;3.25;65.74
33697;BME280;20031;43.416;23.232;2024-01-11T09:21:19;100924.47;;;3.65;65.49
33697;BME280;20031;43.416;23.232;2024-01-11T09:23:45;100922.28;;;3.85;65.14
33697;BME280;20031;43.416;23.232;2024-01-11T09:26:10;100917.13;;;3.85;63.78
33697;BME280;20031;43.416;23.232;2024-01-11T09:28:36;100910.19;;;3.73;63.53
33697;BME280;20031;43.416;23.232;2024-01-11T09:31:01;100913.63;;;4.00;64.17
33697;BME280;20031;43.416;23.232;2024-01-11T09:33:27;100898.44;;;4.22;63.52
33697;BME280;20031;43.416;23.232;2024-01-11T09:35:54;100899.69;;;4.29;62.57
33697;BME280;20031;43.416;23.232;2024-01-11T09:38:21;100891.91;;;4.04;61.61
33697;BME280;20031;43.416;23.232;2024-01-11T09:41:14;100895.03;;;3.95;62.03
33697;BME280;20031;43.416;23.232;2024-01-11T09:43:41;100891.13;;;3.36;61.43
33697;BME280;20031;43.416;23.232;2024-01-11T09:46:07;100886.78;;;3.22;62.67
33697;BME280;20031;43.416;23.232;2024-01-11T09:48:34;100880.75;;;3.37;63.69
33697;BME280;20031;43.416;23.232;2024-01-11T09:51:01;100865.81;;;3.82;63.26
33697;BME280;20031;43.416;23.232;2024-01-11T09:53:30;100866.97;;;3.64;62.13
33697;BME280;20031;43.416;23.232;2024-01-11T09:55:58;100850.38;;;3.82;62.51
33697;BME280;20031;43.416;23.232;2024-01-11T09:58:24;100841.31;;;4.15;62.44
33697;BME280;20031;43.416;23.232;2024-01-11T10:00:54;100840.88;;;4.60;61.31
33697;BME280;20031;43.416;23.232;2024-01-11T10:03:23;100837.91;;;4.91;61.22
33697;BME280;20031;43.416;23.232;2024-01-11T10:05:50;100833.31;;;5.19;59.27
33697;BME280;20031;43.416;23.232;2024-01-11T10:08:21;100834.44;;;5.40;58.41
33697;BME280;20031;43.416;23.232;2024-01-11T10:10:47;100826.69;;;5.40;56.82
33697;BME280;20031;43.416;23.232;2024-01-11T10:13:13;100826.41;;;5.19;55.62
33697;BME280;20031;43.416;23.232;2024-01-11T10:15:39;100812.19;;;5.02;55.44
33697;BME280;20031;43.416;23.232;2024-01-11T10:18:04;100818.91;;;4.79;55.82
33697;BME280;20031;43.416;23.232;2024-01-11T10:20:30;100812.38;;;5.11;56.46
33697;BME280;20031;43.416;23.232;2024-01-11T10:22:57;100804.34;;;5.51;56.84
33697;BME280;20031;43.416;23.232;2024-01-11T10:25:23;100797.59;;;5.84;56.00
33697;BME280;20031;43.416;23.232;2024-01-11T10:27:49;100796.59;;;5.74;54.77
33697;BME280;20031;43.416;23.232;2024-01-11T10:30:15;100778.81;;;5.82;55.65
33697;BME280;20031;43.416;23.232;2024-01-11T10:32:48;100772.06;;;6.03;55.07
33697;BME280;20031;43.416;23.232;2024-01-11T10:35:14;100775.78;;;5.88;54.17
33697;BME280;20031;43.416;23.232;2024-01-11T10:37:40;100763.09;;;5.96;54.81
33697;BME280;20031;43.416;23.232;2024-01-11T10:40:08;100757.84;;;6.08;54.98
33697;BME280;20031;43.416;23.232;2024-01-11T10:42:49;100759.16;;;6.14;54.91
33697;BME280;20031;43.416;23.232;2024-01-11T10:45:17;100751.00;;;6.42;54.57
33697;BME280;20031;43.416;23.232;2024-01-11T10:47:56;100748.63;;;6.39;53.52
33697;BME280;20031;43.416;23.232;2024-01-11T10:50:30;100740.53;;;6.54;54.09
33697;BME280;20031;43.416;23.232;2024-01-11T10:55:34;100735.47;;;6.53;53.45
33697;BME280;20031;43.416;23.232;2024-01-11T10:58:00;100736.31;;;6.64;52.88
33697;BME280;20031;43.416;23.232;2024-01-11T11:00:27;100737.13;;;6.75;52.82
33697;BME280;20031;43.416;23.232;2024-01-11T11:02:54;100728.44;;;6.65;51.89
33697;BME280;20031;43.416;23.232;2024-01-11T11:05:21;100723.72;;;6.59;51.48
33697;BME280;20031;43.416;23.232;2024-01-11T11:07:49;100721.13;;;6.38;49.61
33697;BME280;20031;43.416;23.232;2024-01-11T11:10:17;100715.72;;;6.41;50.06
33697;BME280;20031;43.416;23.232;2024-01-11T11:12:45;100711.25;;;6.43;50.57
33697;BME280;20031;43.416;23.232;2024-01-11T11:15:11;100710.56;;;6.41;51.26
33697;BME280;20031;43.416;23.232;2024-01-11T11:17:38;100705.13;;;6.22;52.11
33697;BME280;20031;43.416;23.232;2024-01-11T11:20:08;100697.59;;;6.19;52.77
33697;BME280;20031;43.416;23.232;2024-01-11T11:22:37;100691.94;;;6.14;53.21
33697;BME280;20031;43.416;23.232;2024-01-11T11:25:09;100691.22;;;6.01;54.46
33697;BME280;20031;43.416;23.232;2024-01-11T11:27:38;100691.91;;;5.92;55.12
33697;BME280;20031;43.416;23.232;2024-01-11T11:30:04;100680.59;;;5.82;55.64
33697;BME280;20031;43.416;23.232;2024-01-11T11:32:38;100675.44;;;5.82;56.52
33697;BME280;20031;43.416;23.232;2024-01-11T11:35:05;100661.09;;;5.78;56.95
33697;BME280;20031;43.416;23.232;2024-01-11T11:37:30;100657.22;;;5.60;57.14
33697;BME280;20031;43.416;23.232;2024-01-11T11:39:59;100658.72;;;5.41;57.66
33697;BME280;20031;43.416;23.232;2024-01-11T11:42:25;100639.78;;;5.30;58.25
33697;BME280;20031;43.416;23.232;2024-01-11T11:44:51;100644.53;;;5.23;59.02
33697;BME280;20031;43.416;23.232;2024-01-11T11:47:21;100636.50;;;5.15;58.90
33697;BME280;20031;43.416;23.232;2024-01-11T11:49:57;100628.00;;;5.03;59.47
33697;BME280;20031;43.416;23.232;2024-01-11T11:52:25;100629.09;;;4.88;58.86
33697;BME280;20031;43.416;23.232;2024-01-11T11:54:50;100623.97;;;4.75;60.21
33697;BME280;20031;43.416;23.232;2024-01-11T11:57:16;100621.66;;;4.60;60.29
33697;BME280;20031;43.416;23.232;2024-01-11T11:59:42;100616.56;;;4.48;61.07
33697;BME280;20031;43.416;23.232;2024-01-11T12:02:15;100612.88;;;4.27;61.45
33697;BME280;20031;43.416;23.232;2024-01-11T12:04:46;100609.91;;;4.08;61.76
33697;BME280;20031;43.416;23.232;2024-01-11T12:07:12;100610.84;;;3.95;62.12
33697;BME280;20031;43.416;23.232;2024-01-11T12:09:37;100596.91;;;3.85;62.29
33697;BME280;20031;43.416;23.232;2024-01-11T12:12:04;100584.25;;;3.69;62.51
33697;BME280;20031;43.416;23.232;2024-01-11T12:14:29;100587.53;;;3.59;63.21
33697;BME280;20031;43.416;23.232;2024-01-11T12:16:58;100581.97;;;3.53;62.92
33697;BME280;20031;43.416;23.232;2024-01-11T12:19:24;100575.66;;;3.44;62.62
33697;BME280;20031;43.416;23.232;2024-01-11T12:21:50;100567.34;;;3.41;62.59
33697;BME280;20031;43.416;23.232;2024-01-11T12:24:16;100561.25;;;3.29;62.50
33697;BME280;20031;43.416;23.232;2024-01-11T12:26:42;100558.06;;;3.26;62.92
33697;BME280;20031;43.416;23.232;2024-01-11T12:29:08;100555.88;;;3.20;63.13
33697;BME280;20031;43.416;23.232;2024-01-11T12:31:34;100557.94;;;3.15;62.85
33697;BME280;20031;43.416;23.232;2024-01-11T12:34:01;100549.59;;;3.11;63.47
33697;BME280;20031;43.416;23.232;2024-01-11T12:36:28;100542.06;;;3.08;63.66
33697;BME280;20031;43.416;23.232;2024-01-11T12:38:53;100540.53;;;3.06;63.55
33697;BME280;20031;43.416;23.232;2024-01-11T12:41:21;100541.97;;;3.10;63.83